Time,TemperatureF,DewpointF,PressureIn,WindDirection,WindDirectionDegrees,WindSpeedMPH,WindSpeedGustMPH,Humidity,HourlyPrecipIn,Conditions,Clouds,dailyrainin,SoftwareType,DateUTC
2013-04-25 00:03:00,53.5,48.0,30.25,WNW,284,0.0,2.0,82,0.00,,,0.00,weatherlink.com 1.10,2013-04-25 05:03:00,
2013-04-25 00:18:00,53.2,48.0,30.26,WNW,284,1.0,2.0,83,0.00,,,0.00,weatherlink.com 1.10,2013-04-25 05:18:00,
2013-04-25 00:33:00,53.3,48.0,30.25,West,280,1.0,2.0,81,0.00,,,0.00,weatherlink.com 1.10,2013-04-25 05:33:00,
2013-04-25 00:49:00,53.3,48.0,30.24,South,170,0.0,3.0,81,0.00,,,0.00,weatherlink.com 1.10,2013-04-25 05:49:00,
2013-04-25 01:04:00,53.6,48.0,30.24,NNE,12,0.0,2.0,80,0.00,,,0.00,weatherlink.com 1.10,2013-04-25 06:04:00,
2013-04-25 01:19:00,53.3,48.0,30.24,NW,314,0.0,2.0,81,0.00,,,0.00,weatherlink.com 1.10,2013-04-25 06:19:00,
2013-04-25 01:34:00,54.0,48.0,30.25,WSW,251,0.0,3.0,81,0.00,,,0.00,weatherlink.com 1.10,2013-04-25 06:34:00,
2013-04-25 01:49:00,54.3,48.0,30.25,WNW,298,0.0,4.0,78,0.00,,,0.00,weatherlink.com 1.10,2013-04-25 06:49:00,
2013-04-25 02:04:00,54.3,48.0,30.25,WNW,300,0.0,2.0,78,0.00,,,0.00,weatherlink.com 1.10,2013-04-25 07:04:00,
2013-04-25 02:19:00,54.6,48.0,30.25,SSW,211,0.0,3.0,78,0.00,,,0.00,weatherlink.com 1.10,2013-04-25 07:19:00,
2013-04-25 02:34:00,54.7,47.0,30.24,WSW,239,0.0,3.0,76,0.00,,,0.00,weatherlink.com 1.10,2013-04-25 07:34:00,
2013-04-25 02:49:00,54.6,48.0,30.25,SSW,212,0.0,4.0,77,0.00,,,0.00,weatherlink.com 1.10,2013-04-25 07:49:00,
2013-04-25 03:04:00,54.9,47.0,30.24,NNW,330,0.0,7.0,76,0.00,,,0.00,weatherlink.com 1.10,2013-04-25 08:04:00,
2013-04-25 03:19:00,54.9,47.0,30.25,SW,215,1.0,3.0,76,0.00,,,0.00,weatherlink.com 1.10,2013-04-25 08:19:00,
2013-04-25 03:34:00,54.8,48.0,30.25,West,267,0.0,2.0,77,0.00,,,0.00,weatherlink.com 1.10,2013-04-25 08:34:00,
2013-04-25 03:49:00,54.6,48.0,30.25,West,267,0.0,2.0,77,0.00,,,0.00,weatherlink.com 1.10,2013-04-25 08:49:00,
2013-04-25 04:04:00,54.5,48.0,30.25,WNW,295,0.0,5.0,78,0.00,,,0.00,weatherlink.com 1.10,2013-04-25 09:04:00,
2013-04-25 04:19:00,54.4,48.0,30.25,WNW,284,0.0,7.0,79,0.00,,,0.00,weatherlink.com 1.10,2013-04-25 09:19:00,
2013-04-25 04:34:00,54.2,48.0,30.25,SSW,209,0.0,3.0,79,0.00,,,0.00,weatherlink.com 1.10,2013-04-25 09:34:00,
2013-04-25 04:49:00,54.1,48.0,30.25,SSW,210,0.0,4.0,80,0.00,,,0.00,weatherlink.com 1.10,2013-04-25 09:49:00,
2013-04-25 05:04:00,53.8,48.0,30.25,WSW,237,0.0,5.0,80,0.00,,,0.00,weatherlink.com 1.10,2013-04-25 10:04:00,
2013-04-25 05:19:00,53.6,48.0,30.25,NW,317,0.0,7.0,81,0.00,,,0.00,weatherlink.com 1.10,2013-04-25 10:19:00,
2013-04-25 05:34:00,53.5,48.0,30.25,West,259,0.0,7.0,80,0.00,,,0.00,weatherlink.com 1.10,2013-04-25 10:34:00,
2013-04-25 05:49:00,53.4,47.0,30.25,South,186,0.0,7.0,78,0.00,,,0.00,weatherlink.com 1.10,2013-04-25 10:49:00,
2013-04-25 06:04:00,53.3,47.0,30.26,NW,307,0.0,5.0,78,0.00,,,0.00,weatherlink.com 1.10,2013-04-25 11:04:00,
2013-04-25 06:19:00,53.2,46.0,30.26,WNW,288,0.0,6.0,77,0.00,,,0.00,weatherlink.com 1.10,2013-04-25 11:19:00,
2013-04-25 06:34:00,53.2,46.0,30.26,NNW,331,0.0,4.0,77,0.00,,,0.00,weatherlink.com 1.10,2013-04-25 11:34:00,
2013-04-25 06:49:00,53.2,46.0,30.27,West,261,0.0,5.0,77,0.00,,,0.00,weatherlink.com 1.10,2013-04-25 11:49:00,
2013-04-25 07:04:00,53.1,46.0,30.28,NW,305,2.0,6.0,77,0.00,,,0.00,weatherlink.com 1.10,2013-04-25 12:04:00,
2013-04-25 07:19:00,53.0,46.0,30.30,SW,234,0.0,7.0,77,0.00,,,0.00,weatherlink.com 1.10,2013-04-25 12:19:00,
2013-04-25 07:34:00,53.3,47.0,30.30,WNW,296,0.0,3.0,78,0.00,,,0.00,weatherlink.com 1.10,2013-04-25 12:34:00,
2013-04-25 07:49:00,53.5,46.0,30.31,West,271,0.0,3.0,77,0.00,,,0.00,weatherlink.com 1.10,2013-04-25 12:49:00,
2013-04-25 08:04:00,53.5,46.0,30.31,West,277,2.0,5.0,77,0.00,,,0.00,weatherlink.com 1.10,2013-04-25 13:04:00,
2013-04-25 08:19:00,54.0,47.0,30.31,WSW,252,0.0,5.0,76,0.00,,,0.00,weatherlink.com 1.10,2013-04-25 13:19:00,
2013-04-25 08:34:00,54.7,47.0,30.31,South,188,2.0,3.0,75,0.00,,,0.00,weatherlink.com 1.10,2013-04-25 13:34:00,
2013-04-25 08:49:00,55.1,46.0,30.32,SSW,202,0.0,4.0,71,0.00,,,0.00,weatherlink.com 1.10,2013-04-25 13:49:00,
2013-04-25 09:04:00,55.9,46.0,30.32,SW,230,0.0,6.0,69,0.00,,,0.00,weatherlink.com 1.10,2013-04-25 14:04:00,
2013-04-25 09:19:00,56.7,47.0,30.33,SSW,192,1.0,7.0,69,0.00,,,0.00,weatherlink.com 1.10,2013-04-25 14:19:00,
2013-04-25 09:34:00,58.1,46.0,30.33,SW,229,1.0,6.0,65,0.00,,,0.00,weatherlink.com 1.10,2013-04-25 14:34:00,
2013-04-25 09:49:00,59.5,46.0,30.34,WSW,243,0.0,7.0,61,0.00,,,0.00,weatherlink.com 1.10,2013-04-25 14:49:00,
2013-04-25 10:04:00,61.0,46.0,30.33,West,262,1.0,9.0,58,0.00,,,0.00,weatherlink.com 1.10,2013-04-25 15:04:00,
2013-04-25 10:19:00,62.3,46.0,30.34,SW,217,1.0,8.0,56,0.00,,,0.00,weatherlink.com 1.10,2013-04-25 15:19:00,
2013-04-25 10:34:00,63.2,44.0,30.34,SE,124,1.0,10.0,50,0.00,,,0.00,weatherlink.com 1.10,2013-04-25 15:34:00,
2013-04-25 10:49:00,63.3,43.0,30.33,South,184,0.0,8.0,48,0.00,,,0.00,weatherlink.com 1.10,2013-04-25 15:49:00,
2013-04-25 11:05:00,63.9,44.0,30.33,WSW,238,6.0,9.0,48,0.00,,,0.00,weatherlink.com 1.10,2013-04-25 16:05:00,
2013-04-25 11:20:00,64.6,44.0,30.33,SW,233,5.0,8.0,48,0.00,,,0.00,weatherlink.com 1.10,2013-04-25 16:20:00,
2013-04-25 11:35:00,65.0,45.0,30.33,WNW,282,0.0,7.0,48,0.00,,,0.00,weatherlink.com 1.10,2013-04-25 16:35:00,
2013-04-25 11:50:00,65.8,41.0,30.33,SW,226,1.0,9.0,41,0.00,,,0.00,weatherlink.com 1.10,2013-04-25 16:50:00,
2013-04-25 12:05:00,65.7,41.0,30.32,WNW,302,0.0,9.0,40,0.00,,,0.00,weatherlink.com 1.10,2013-04-25 17:05:00,
2013-04-25 12:20:00,66.4,42.0,30.32,SE,125,1.0,6.0,41,0.00,,,0.00,weatherlink.com 1.10,2013-04-25 17:20:00,
2013-04-25 12:35:00,67.3,45.0,30.32,North,350,1.0,8.0,45,0.00,,,0.00,weatherlink.com 1.10,2013-04-25 17:35:00,
2013-04-25 12:50:00,68.9,42.0,30.31,South,184,2.0,7.0,38,0.00,,,0.00,weatherlink.com 1.10,2013-04-25 17:50:00,
2013-04-25 13:05:00,68.2,44.0,30.30,WNW,301,5.0,6.0,42,0.00,,,0.00,weatherlink.com 1.10,2013-04-25 18:05:00,
2013-04-25 13:20:00,68.7,45.0,30.29,North,350,0.0,10.0,42,0.00,,,0.00,weatherlink.com 1.10,2013-04-25 18:20:00,
2013-04-25 13:35:00,69.4,43.0,30.29,West,263,0.0,8.0,39,0.00,,,0.00,weatherlink.com 1.10,2013-04-25 18:35:00,
2013-04-25 13:50:00,71.3,44.0,30.29,SSW,200,2.0,5.0,37,0.00,,,0.00,weatherlink.com 1.10,2013-04-25 18:50:00,
2013-04-25 14:05:00,71.3,44.0,30.28,SE,138,0.0,7.0,37,0.00,,,0.00,weatherlink.com 1.10,2013-04-25 19:05:00,
2013-04-25 14:20:00,72.2,44.0,30.28,SSE,162,1.0,6.0,36,0.00,,,0.00,weatherlink.com 1.10,2013-04-25 19:20:00,
2013-04-25 14:35:00,72.5,42.0,30.27,NNE,14,0.0,5.0,34,0.00,,,0.00,weatherlink.com 1.10,2013-04-25 19:35:00,
2013-04-25 14:50:00,73.2,43.0,30.27,South,180,0.0,5.0,34,0.00,,,0.00,weatherlink.com 1.10,2013-04-25 19:50:00,
2013-04-25 15:05:00,73.8,43.0,30.26,West,265,0.0,6.0,33,0.00,,,0.00,weatherlink.com 1.10,2013-04-25 20:05:00,
2013-04-25 15:20:00,74.4,46.0,30.26,South,188,3.0,7.0,36,0.00,,,0.00,weatherlink.com 1.10,2013-04-25 20:20:00,
2013-04-25 15:35:00,75.1,46.0,30.25,ESE,111,0.0,3.0,36,0.00,,,0.00,weatherlink.com 1.10,2013-04-25 20:35:00,
2013-04-25 15:50:00,74.1,43.0,30.25,SSW,192,1.0,9.0,33,0.00,,,0.00,weatherlink.com 1.10,2013-04-25 20:50:00,
2013-04-25 16:05:00,74.2,44.0,30.24,South,170,3.0,5.0,34,0.00,,,0.00,weatherlink.com 1.10,2013-04-25 21:05:00,
2013-04-25 16:20:00,75.0,46.0,30.24,South,189,0.0,6.0,35,0.00,,,0.00,weatherlink.com 1.10,2013-04-25 21:20:00,
2013-04-25 16:35:00,74.5,46.0,30.23,SSE,155,6.0,8.0,36,0.00,,,0.00,weatherlink.com 1.10,2013-04-25 21:35:00,
2013-04-25 16:50:00,74.9,45.0,30.23,SW,215,4.0,5.0,35,0.00,,,0.00,weatherlink.com 1.10,2013-04-25 21:50:00,
2013-04-25 17:05:00,74.5,44.0,30.22,South,184,0.0,5.0,34,0.00,,,0.00,weatherlink.com 1.10,2013-04-25 22:05:00,
2013-04-25 17:20:00,74.9,46.0,30.22,SE,140,0.0,3.0,36,0.00,,,0.00,weatherlink.com 1.10,2013-04-25 22:20:00,
2013-04-25 17:35:00,74.5,47.0,30.22,SSE,161,0.0,3.0,38,0.00,,,0.00,weatherlink.com 1.10,2013-04-25 22:35:00,
2013-04-25 17:50:00,74.9,47.0,30.22,South,183,0.0,1.0,37,0.00,,,0.00,weatherlink.com 1.10,2013-04-25 22:50:00,
2013-04-25 18:05:00,73.8,46.0,30.22,SSE,161,0.0,3.0,37,0.00,,,0.00,weatherlink.com 1.10,2013-04-25 23:05:00,
2013-04-25 18:20:00,73.6,46.0,30.22,SSE,151,0.0,2.0,38,0.00,,,0.00,weatherlink.com 1.10,2013-04-25 23:20:00,
2013-04-25 18:35:00,72.6,46.0,30.22,SSE,149,0.0,1.0,39,0.00,,,0.00,weatherlink.com 1.10,2013-04-25 23:35:00,
2013-04-25 18:50:00,71.4,44.0,30.22,South,181,0.0,3.0,38,0.00,,,0.00,weatherlink.com 1.10,2013-04-25 23:50:00,
2013-04-25 19:05:00,70.2,48.0,30.22,South,181,0.0,0.0,46,0.00,,,0.00,weatherlink.com 1.10,2013-04-26 00:05:00,
2013-04-25 19:20:00,68.9,47.0,30.22,South,181,0.0,0.0,46,0.00,,,0.00,weatherlink.com 1.10,2013-04-26 00:20:00,
2013-04-25 19:35:00,67.6,48.0,30.22,South,181,0.0,0.0,49,0.00,,,0.00,weatherlink.com 1.10,2013-04-26 00:35:00,
2013-04-25 19:50:00,66.2,49.0,30.22,South,181,0.0,1.0,55,0.00,,,0.00,weatherlink.com 1.10,2013-04-26 00:50:00,
2013-04-25 20:05:00,64.5,48.0,30.22,South,181,0.0,0.0,55,0.00,,,0.00,weatherlink.com 1.10,2013-04-26 01:05:00,
2013-04-25 20:20:00,63.4,50.0,30.22,South,181,0.0,0.0,61,0.00,,,0.00,weatherlink.com 1.10,2013-04-26 01:20:00,
2013-04-25 20:35:00,62.0,50.0,30.23,South,181,0.0,0.0,65,0.00,,,0.00,weatherlink.com 1.10,2013-04-26 01:35:00,
2013-04-25 20:50:00,60.7,50.0,30.22,South,181,0.0,0.0,67,0.00,,,0.00,weatherlink.com 1.10,2013-04-26 01:50:00,
2013-04-25 21:05:00,59.5,50.0,30.22,South,181,0.0,0.0,70,0.00,,,0.00,weatherlink.com 1.10,2013-04-26 02:05:00,
2013-04-25 21:20:00,58.7,49.0,30.23,South,181,0.0,0.0,71,0.00,,,0.00,weatherlink.com 1.10,2013-04-26 02:20:00,
2013-04-25 21:35:00,58.4,51.0,30.23,South,181,0.0,0.0,75,0.00,,,0.00,weatherlink.com 1.10,2013-04-26 02:35:00,
2013-04-25 21:50:00,57.9,50.0,30.24,South,181,0.0,0.0,76,0.00,,,0.00,weatherlink.com 1.10,2013-04-26 02:50:00,
2013-04-25 22:05:00,57.5,50.0,30.24,South,181,0.0,0.0,77,0.00,,,0.00,weatherlink.com 1.10,2013-04-26 03:05:00,
2013-04-25 22:20:00,57.3,51.0,30.25,South,181,0.0,0.0,79,0.00,,,0.00,weatherlink.com 1.10,2013-04-26 03:20:00,
2013-04-25 22:35:00,57.3,51.0,30.25,South,181,0.0,0.0,78,0.00,,,0.00,weatherlink.com 1.10,2013-04-26 03:35:00,
2013-04-25 22:50:00,57.3,51.0,30.25,South,181,0.0,0.0,78,0.00,,,0.00,weatherlink.com 1.10,2013-04-26 03:50:00,
2013-04-25 23:05:00,57.3,51.0,30.25,South,181,0.0,0.0,79,0.00,,,0.00,weatherlink.com 1.10,2013-04-26 04:05:00,
2013-04-25 23:20:00,57.3,51.0,30.25,South,181,0.0,0.0,80,0.00,,,0.00,weatherlink.com 1.10,2013-04-26 04:20:00,
2013-04-25 23:35:00,57.3,51.0,30.24,South,181,0.0,1.0,79,0.00,,,0.00,weatherlink.com 1.10,2013-04-26 04:35:00,
2013-04-25 23:50:00,57.3,50.0,30.24,South,181,0.0,0.0,77,0.00,,,0.00,weatherlink.com 1.10,2013-04-26 04:50:00,